createdAt,value
2019-05-30T00:00:05.741Z,18.79
2019-05-30T00:03:15.902Z,18.84
2019-05-30T00:06:38.997Z,18.66
2019-05-30T00:10:03.014Z,18.67
2019-05-30T00:13:26.493Z,18.72
2019-05-30T00:16:51.649Z,18.39
2019-05-30T00:20:14.976Z,18.23
2019-05-30T00:23:38.346Z,18.52
2019-05-30T00:27:02.470Z,18.41
2019-05-30T00:30:25.732Z,18.34
2019-05-30T00:33:48.972Z,18.17
2019-05-30T00:37:12.202Z,18.05
2019-05-30T00:40:35.418Z,18.28
2019-05-30T00:43:59.871Z,18.26
2019-05-30T00:47:23.178Z,18.18
2019-05-30T00:50:46.609Z,18.10
2019-05-30T00:54:09.832Z,17.92
2019-05-30T00:57:33.066Z,18.16
2019-05-30T01:00:56.806Z,17.89
2019-05-30T01:04:20.054Z,17.75
2019-05-30T01:07:43.187Z,17.68
2019-05-30T01:11:07.370Z,17.67
2019-05-30T01:14:30.957Z,17.90
2019-05-30T01:17:54.071Z,17.89
2019-05-30T01:21:17.324Z,17.63
2019-05-30T01:24:40.604Z,17.71
2019-05-30T01:28:03.841Z,17.82
2019-05-30T01:31:26.974Z,17.79
2019-05-30T01:34:50.419Z,17.88
2019-05-30T01:38:13.535Z,17.83
2019-05-30T01:41:36.667Z,18.00
2019-05-30T01:45:00.224Z,17.93
2019-05-30T01:48:23.793Z,17.82
2019-05-30T01:51:46.945Z,18.10
2019-05-30T01:55:11.276Z,17.88
2019-05-30T01:58:34.439Z,17.72
2019-05-30T02:01:58.944Z,17.70
2019-05-30T02:05:22.272Z,17.98
2019-05-30T02:10:01.273Z,17.97
2019-05-30T02:13:24.514Z,18.07
2019-05-30T02:16:47.641Z,17.83
2019-05-30T02:20:10.935Z,17.48
2019-05-30T02:23:34.077Z,18.06
2019-05-30T02:26:57.597Z,18.16
2019-05-30T02:30:21.375Z,17.91
2019-05-30T02:33:44.922Z,18.07
2019-05-30T02:37:10.089Z,18.09
2019-05-30T02:40:33.941Z,17.89
2019-05-30T02:43:57.104Z,17.84
2019-05-30T02:47:22.451Z,18.07
2019-05-30T02:50:45.635Z,18.02
2019-05-30T02:54:10.529Z,17.90
2019-05-30T02:57:33.793Z,18.05
2019-05-30T03:00:57.351Z,17.87
2019-05-30T03:04:20.786Z,17.86
2019-05-30T03:07:43.929Z,17.88
2019-05-30T03:11:09.554Z,17.85
2019-05-30T03:14:32.566Z,17.82
2019-05-30T03:17:56.348Z,17.64
2019-05-30T03:21:19.573Z,17.73
2019-05-30T03:24:43.062Z,17.64
2019-05-30T03:28:07.553Z,17.33
2019-05-30T03:31:35.193Z,17.79
2019-05-30T03:34:58.383Z,17.82
2019-05-30T03:38:21.603Z,17.55
2019-05-30T03:41:45.023Z,17.64
2019-05-30T03:45:10.973Z,17.77
2019-05-30T03:48:35.355Z,17.60
2019-05-30T03:52:04.647Z,17.63
2019-05-30T03:55:29.186Z,17.81
2019-05-30T03:59:10.395Z,17.33
2019-05-30T04:03:13.755Z,17.19
2019-05-30T04:06:43.969Z,17.22
2019-05-30T04:10:09.059Z,17.38
2019-05-30T04:13:49.302Z,17.49
2019-05-30T04:17:13.742Z,17.63
2019-05-30T04:20:37.485Z,17.47
2019-05-30T04:24:03.699Z,17.42
2019-05-30T04:27:27.840Z,17.54
2019-05-30T04:30:53.756Z,17.89
2019-05-30T04:34:17.733Z,17.87
2019-05-30T04:37:42.262Z,17.72
2019-05-30T04:41:05.397Z,17.83
2019-05-30T04:44:28.655Z,17.34
2019-05-30T04:47:52.357Z,17.37
2019-05-30T04:51:16.420Z,17.65
2019-05-30T04:54:40.292Z,17.34
2019-05-30T04:58:03.606Z,17.85
2019-05-30T05:01:27.369Z,17.70
2019-05-30T05:04:51.294Z,17.99
2019-05-30T05:08:15.827Z,17.89
2019-05-30T05:11:39.838Z,17.64
2019-05-30T05:15:03.869Z,17.66
2019-05-30T05:18:27.784Z,17.67
2019-05-30T05:21:50.888Z,17.43
2019-05-30T05:25:15.423Z,17.76
2019-05-30T05:28:38.908Z,18.05
2019-05-30T05:32:02.336Z,18.04
2019-05-30T05:35:25.887Z,18.12
2019-05-30T05:38:49.140Z,17.99
2019-05-30T05:42:15.988Z,18.01
2019-05-30T05:45:39.629Z,18.34
2019-05-30T05:49:03.039Z,18.55
2019-05-30T05:52:26.400Z,18.02
2019-05-30T05:55:49.684Z,18.06
2019-05-30T05:59:13.157Z,18.33
2019-05-30T06:02:36.384Z,18.19
2019-05-30T06:05:59.543Z,18.32
2019-05-30T06:09:24.658Z,18.05
2019-05-30T06:12:47.780Z,17.93
2019-05-30T06:16:11.922Z,17.46
2019-05-30T06:19:45.933Z,17.44
2019-05-30T06:23:00.705Z,17.34
2019-05-30T06:26:24.292Z,17.21
2019-05-30T06:29:47.608Z,17.25
2019-05-30T06:33:10.819Z,17.17
2019-05-30T06:36:33.964Z,16.92
2019-05-30T06:39:57.131Z,16.84
2019-05-30T06:43:21.909Z,16.17
2019-05-30T06:46:45.421Z,16.34
2019-05-30T06:50:08.557Z,16.21
2019-05-30T06:53:31.700Z,16.42
2019-05-30T06:56:55.144Z,16.35
2019-05-30T07:00:26.451Z,16.51
2019-05-30T07:03:50.005Z,16.38
2019-05-30T07:07:14.872Z,15.96
2019-05-30T07:10:38.065Z,16.34
2019-05-30T07:14:01.851Z,16.31
2019-05-30T07:17:25.692Z,16.15
2019-05-30T07:20:48.822Z,16.21
2019-05-30T07:24:11.969Z,16.20
2019-05-30T07:27:35.053Z,16.37
2019-05-30T07:30:58.461Z,16.38
2019-05-30T07:34:21.581Z,16.18
2019-05-30T07:37:46.650Z,16.39
2019-05-30T07:41:10.854Z,16.12
2019-05-30T07:44:34.986Z,16.65
2019-05-30T07:47:58.984Z,16.71
2019-05-30T07:51:24.404Z,16.68
2019-05-30T07:54:47.516Z,16.51
2019-05-30T07:58:10.702Z,17.23
2019-05-30T08:01:34.630Z,17.10
2019-05-30T08:04:58.521Z,17.16
2019-05-30T08:08:21.927Z,17.62
2019-05-30T08:11:45.332Z,17.65
2019-05-30T08:15:09.049Z,17.56
2019-05-30T08:18:33.654Z,17.41
2019-05-30T08:21:57.232Z,17.62
2019-05-30T08:25:20.626Z,17.90
2019-05-30T08:28:43.726Z,18.78
2019-05-30T08:32:06.973Z,18.38
2019-05-30T08:35:45.412Z,19.18
2019-05-30T08:38:55.864Z,19.27
2019-05-30T08:42:19.041Z,19.25
2019-05-30T08:45:42.192Z,19.39
2019-05-30T08:49:06.707Z,19.41
2019-05-30T08:52:30.369Z,19.03
2019-05-30T08:55:53.590Z,19.29
2019-05-30T08:59:16.783Z,19.17
2019-05-30T09:02:40.926Z,19.70
2019-05-30T09:06:04.622Z,19.05
2019-05-30T09:09:28.125Z,19.75
2019-05-30T09:12:51.823Z,19.11
2019-05-30T09:16:15.055Z,19.18
2019-05-30T09:19:39.802Z,18.46
2019-05-30T09:23:04.055Z,19.04
2019-05-30T09:26:27.589Z,18.99
2019-05-30T09:29:51.835Z,19.18
2019-05-30T09:33:15.316Z,19.23
2019-05-30T09:36:39.464Z,19.04
2019-05-30T09:40:04.599Z,19.38
2019-05-30T09:43:27.878Z,19.16
2019-05-30T09:46:52.218Z,19.05
2019-05-30T09:50:15.808Z,19.21
2019-05-30T09:53:39.388Z,19.10
2019-05-30T09:57:02.676Z,18.72
2019-05-30T10:00:26.253Z,19.60
2019-05-30T10:03:50.199Z,20.02
2019-05-30T10:07:13.531Z,20.33
2019-05-30T10:10:36.970Z,20.73
2019-05-30T10:14:00.710Z,20.44
2019-05-30T10:17:24.755Z,20.38
2019-05-30T10:20:51.955Z,19.88
2019-05-30T10:24:14.976Z,19.92
2019-05-30T10:27:38.220Z,20.00
2019-05-30T10:31:01.354Z,20.50
2019-05-30T10:34:26.312Z,19.84
2019-05-30T10:37:50.951Z,19.81
2019-05-30T10:41:14.199Z,20.55
2019-05-30T10:44:37.815Z,20.17
2019-05-30T10:48:00.959Z,20.18
2019-05-30T10:51:24.137Z,20.24
2019-05-30T10:54:47.909Z,20.04
2019-05-30T10:58:11.595Z,19.73
2019-05-30T11:01:34.846Z,19.92
2019-05-30T11:04:58.435Z,20.12
2019-05-30T11:08:25.305Z,19.97
2019-05-30T11:11:48.658Z,19.86
2019-05-30T11:15:11.999Z,20.67
2019-05-30T11:18:35.566Z,20.46
2019-05-30T11:21:58.961Z,20.64
2019-05-30T11:25:22.102Z,20.68
2019-05-30T11:28:45.654Z,21.19
2019-05-30T11:32:09.004Z,20.90
2019-05-30T11:35:32.742Z,20.57
2019-05-30T11:38:59.456Z,20.31
2019-05-30T11:42:23.221Z,19.82
2019-05-30T11:45:46.649Z,19.97
2019-05-30T11:49:10.038Z,19.68
2019-05-30T11:52:33.564Z,20.19
2019-05-30T11:55:56.716Z,19.79
2019-05-30T11:59:20.140Z,20.14
2019-05-30T12:02:43.347Z,20.24
2019-05-30T12:06:06.847Z,20.42
2019-05-30T12:09:30.435Z,20.14
2019-05-30T12:12:55.158Z,20.20
2019-05-30T12:16:18.518Z,20.10
2019-05-30T12:19:41.644Z,20.00
2019-05-30T12:23:05.089Z,19.85
2019-05-30T12:26:28.294Z,20.39
2019-05-30T12:29:52.053Z,20.48
2019-05-30T12:33:15.410Z,20.63
2019-05-30T12:36:40.225Z,20.53
2019-05-30T12:40:04.231Z,20.67
2019-05-30T12:43:27.494Z,20.67
2019-05-30T12:46:50.905Z,20.49
2019-05-30T12:50:16.834Z,20.02
2019-05-30T12:53:40.186Z,20.06
2019-05-30T12:57:03.455Z,20.10
2019-05-30T13:00:28.062Z,20.13
2019-05-30T13:03:51.254Z,20.29
2019-05-30T13:07:14.379Z,19.87
2019-05-30T13:10:37.799Z,20.20
2019-05-30T13:14:01.012Z,20.68
2019-05-30T13:17:24.252Z,20.62
2019-05-30T13:20:47.420Z,20.90
2019-05-30T13:24:10.539Z,20.83
2019-05-30T13:27:33.729Z,21.20
2019-05-30T13:30:58.155Z,21.08
2019-05-30T13:34:21.779Z,20.53
2019-05-30T13:37:44.905Z,21.49
2019-05-30T13:41:08.156Z,21.04
2019-05-30T13:44:31.673Z,20.66
2019-05-30T13:47:54.786Z,21.27
2019-05-30T13:51:18.118Z,21.48
2019-05-30T13:54:41.186Z,21.11
2019-05-30T13:58:05.662Z,21.07
2019-05-30T14:01:28.931Z,21.52
2019-05-30T14:04:52.196Z,21.40
2019-05-30T14:08:16.761Z,22.32
2019-05-30T14:11:41.132Z,22.97
2019-05-30T14:15:09.203Z,22.18
2019-05-30T14:18:30.537Z,22.03
2019-05-30T14:21:53.710Z,22.08
2019-05-30T14:25:18.924Z,22.80
2019-05-30T14:28:42.175Z,23.17
2019-05-30T14:32:05.763Z,23.20
2019-05-30T14:35:29.385Z,23.72
2019-05-30T14:38:58.251Z,22.90
2019-05-30T14:42:18.385Z,22.98
2019-05-30T14:45:41.924Z,24.17
2019-05-30T14:49:06.410Z,25.82
2019-05-30T14:52:29.948Z,25.10
2019-05-30T14:55:53.305Z,23.95
2019-05-30T14:59:17.968Z,24.50
2019-05-30T15:02:41.726Z,23.56
2019-05-30T15:06:06.906Z,23.77
2019-05-30T15:09:30.587Z,24.81
2019-05-30T15:12:54.118Z,24.91
2019-05-30T15:16:17.824Z,23.59
2019-05-30T15:19:41.365Z,23.83
2019-05-30T15:23:05.508Z,23.56
2019-05-30T15:26:28.755Z,23.44
2019-05-30T15:29:52.021Z,23.89
2019-05-30T15:33:15.144Z,23.47
2019-05-30T15:36:38.498Z,23.67
2019-05-30T15:40:01.661Z,24.02
2019-05-30T15:43:25.864Z,23.58
2019-05-30T15:46:49.420Z,23.14
2019-05-30T15:50:14.120Z,23.57
2019-05-30T15:53:38.331Z,23.28
2019-05-30T15:57:01.862Z,23.84
2019-05-30T16:00:26.425Z,24.39
2019-05-30T16:03:49.831Z,24.33
2019-05-30T16:07:14.607Z,24.72
2019-05-30T16:10:37.951Z,24.86
2019-05-30T16:14:01.390Z,25.37
2019-05-30T16:17:24.906Z,23.71
2019-05-30T16:20:48.274Z,23.21
2019-05-30T16:24:12.385Z,22.99
2019-05-30T16:27:35.849Z,23.36
2019-05-30T16:30:59.163Z,23.04
2019-05-30T16:34:22.367Z,23.10
2019-05-30T16:37:45.518Z,24.02
2019-05-30T16:41:08.796Z,25.16
2019-05-30T16:44:32.246Z,26.29
2019-05-30T16:47:56.132Z,24.49
2019-05-30T16:51:21.080Z,24.73
2019-05-30T16:54:44.729Z,24.01
2019-05-30T16:58:08.056Z,24.04
2019-05-30T17:01:31.664Z,24.31
2019-05-30T17:04:54.886Z,25.68
2019-05-30T17:08:18.594Z,25.65
2019-05-30T17:11:43.125Z,25.25
2019-05-30T17:15:07.755Z,25.03
2019-05-30T17:18:31.169Z,23.66
2019-05-30T17:21:54.867Z,23.89
2019-05-30T17:25:19.057Z,23.63
2019-05-30T17:28:42.674Z,23.59
2019-05-30T17:32:06.139Z,23.82
2019-05-30T17:35:29.782Z,23.51
2019-05-30T17:38:53.298Z,22.92
2019-05-30T17:42:16.960Z,23.06
2019-05-30T17:45:40.703Z,23.26
2019-05-30T17:49:04.707Z,22.59
2019-05-30T17:52:28.102Z,22.73
2019-05-30T17:55:51.517Z,22.79
2019-05-30T17:59:15.328Z,22.70
2019-05-30T18:02:38.769Z,22.56
2019-05-30T18:06:02.740Z,22.66
2019-05-30T18:09:27.169Z,22.90
2019-05-30T18:12:50.784Z,23.01
2019-05-30T18:16:14.100Z,23.17
2019-05-30T18:19:38.796Z,23.62
2019-05-30T18:23:02.223Z,22.85
2019-05-30T18:26:25.598Z,23.01
2019-05-30T18:29:49.398Z,22.81
2019-05-30T18:33:12.959Z,22.75
2019-05-30T18:36:36.957Z,22.52
2019-05-30T18:40:01.303Z,23.09
2019-05-30T18:43:26.770Z,22.31
2019-05-30T18:46:50.565Z,22.52
2019-05-30T18:50:14.249Z,22.38
2019-05-30T18:53:37.838Z,22.64
2019-05-30T18:57:01.826Z,22.68
2019-05-30T19:00:27.597Z,22.41
2019-05-30T19:03:52.259Z,22.36
2019-05-30T19:07:15.847Z,22.18
2019-05-30T19:10:39.637Z,22.39
2019-05-30T19:14:03.482Z,22.37
2019-05-30T19:17:27.728Z,22.25
2019-05-30T19:20:51.783Z,22.17
2019-05-30T19:24:15.298Z,22.24
2019-05-30T19:27:38.897Z,22.29
2019-05-30T19:31:02.756Z,22.58
2019-05-30T19:34:26.599Z,22.16
2019-05-30T19:37:49.922Z,22.38
2019-05-30T19:41:13.948Z,22.34
2019-05-30T19:44:41.646Z,22.51
2019-05-30T19:48:05.358Z,22.40
2019-05-30T19:51:28.975Z,22.51
2019-05-30T19:54:53.215Z,22.17
2019-05-30T19:58:16.962Z,22.13
2019-05-30T20:01:40.773Z,22.34
2019-05-30T20:05:05.137Z,22.31
2019-05-30T20:08:44.681Z,22.37
2019-05-30T20:12:03.258Z,22.09
2019-05-30T20:15:23.685Z,22.20
2019-05-30T20:18:47.360Z,22.34
2019-05-30T20:22:13.844Z,22.27
2019-05-30T20:25:43.677Z,22.28
2019-05-30T20:29:05.479Z,22.26
2019-05-30T20:32:28.796Z,22.25
2019-05-30T20:35:52.100Z,21.88
2019-05-30T20:39:16.183Z,22.07
2019-05-30T20:42:40.940Z,22.13
2019-05-30T20:46:05.179Z,22.06
2019-05-30T20:49:28.828Z,21.87
2019-05-30T20:52:52.741Z,21.96
2019-05-30T20:56:16.227Z,22.14
2019-05-30T20:59:40.647Z,21.96
2019-05-30T21:03:04.598Z,21.78
2019-05-30T21:06:29.374Z,22.03
2019-05-30T21:09:54.412Z,21.85
2019-05-30T21:13:18.961Z,21.97
2019-05-30T21:16:44.254Z,22.00
2019-05-30T21:20:11.524Z,21.89
2019-05-30T21:23:34.381Z,21.59
2019-05-30T21:26:57.684Z,21.58
2019-05-30T21:30:21.033Z,21.85
2019-05-30T21:33:47.880Z,22.03
2019-05-30T21:37:17.449Z,21.73
2019-05-30T21:40:42.370Z,21.83
2019-05-30T21:44:05.790Z,22.05
2019-05-30T21:47:28.971Z,21.61
2019-05-30T21:50:52.524Z,21.57
2019-05-30T21:54:15.697Z,22.01
2019-05-30T21:57:39.823Z,21.87
2019-05-30T22:01:31.104Z,21.53
2019-05-30T22:04:54.209Z,21.73
2019-05-30T22:08:17.358Z,21.50
2019-05-30T22:11:41.634Z,21.62
2019-05-30T22:18:28.390Z,21.70
2019-05-30T22:21:52.369Z,21.78
2019-05-30T22:25:16.105Z,21.44
2019-05-30T22:28:39.257Z,21.71
2019-05-30T22:32:02.739Z,21.45
2019-05-30T22:35:25.875Z,21.62
2019-05-30T22:38:49.082Z,21.19
2019-05-30T22:42:12.409Z,21.27
2019-05-30T22:45:36.335Z,21.39
2019-05-30T22:48:59.835Z,21.19
2019-05-30T22:52:23.051Z,21.54
2019-05-30T22:55:47.184Z,21.22
2019-05-30T22:59:10.324Z,21.42
2019-05-30T23:02:33.478Z,21.51
2019-05-30T23:05:57.577Z,21.22
2019-05-30T23:09:21.006Z,21.21
2019-05-30T23:12:44.796Z,20.90
2019-05-30T23:16:09.100Z,20.89
2019-05-30T23:19:32.633Z,21.12
2019-05-30T23:22:57.162Z,21.02
2019-05-30T23:26:20.370Z,20.88
2019-05-30T23:29:43.489Z,20.75
2019-05-30T23:33:07.228Z,20.74
2019-05-30T23:36:30.422Z,20.74
2019-05-30T23:39:54.847Z,20.51
2019-05-30T23:43:18.514Z,21.09
2019-05-30T23:46:42.129Z,20.45
2019-05-30T23:50:05.738Z,20.88
2019-05-30T23:53:29.235Z,21.16
2019-05-30T23:56:52.683Z,21.04
